createdAt,value
2023-03-19T00:00:31.699Z,12.60
2023-03-19T00:02:58.813Z,12.10
2023-03-19T00:05:30.373Z,12.23
2023-03-19T00:07:57.565Z,12.07
2023-03-19T00:10:30.220Z,13.77
2023-03-19T00:12:57.464Z,13.48
2023-03-19T00:15:24.679Z,11.95
2023-03-19T00:18:00.816Z,12.13
2023-03-19T00:20:28.155Z,10.55
2023-03-19T00:22:56.303Z,11.93
2023-03-19T00:25:23.905Z,13.93
2023-03-19T00:28:11.115Z,14.55
2023-03-19T00:31:31.616Z,12.48
2023-03-19T00:33:36.341Z,11.00
2023-03-19T00:36:04.079Z,11.07
2023-03-19T00:38:31.052Z,12.13
2023-03-19T00:40:58.065Z,13.90
2023-03-19T00:43:25.586Z,14.18
2023-03-19T00:45:52.854Z,14.00
2023-03-19T00:48:23.507Z,12.93
2023-03-19T00:50:51.053Z,17.83
2023-03-19T00:53:18.615Z,14.20
2023-03-19T00:55:46.525Z,18.75
2023-03-19T00:58:13.603Z,15.27
2023-03-19T01:00:40.586Z,14.55
2023-03-19T01:03:07.685Z,14.55
2023-03-19T01:08:03.938Z,20.77
2023-03-19T01:10:33.695Z,16.55
2023-03-19T01:13:00.631Z,19.12
2023-03-19T01:15:27.777Z,12.85
2023-03-19T01:17:54.839Z,16.33
2023-03-19T01:20:24.307Z,16.45
2023-03-19T01:22:51.358Z,17.77
2023-03-19T01:25:18.551Z,12.68
2023-03-19T01:27:46.716Z,13.48
2023-03-19T01:30:14.616Z,16.83
2023-03-19T01:32:41.637Z,16.87
2023-03-19T01:35:09.978Z,19.87
2023-03-19T01:37:37.741Z,15.75
2023-03-19T01:40:06.191Z,18.17
2023-03-19T01:42:34.017Z,16.75
2023-03-19T01:45:03.908Z,13.70
2023-03-19T01:50:00.237Z,14.45
2023-03-19T01:52:32.320Z,12.30
2023-03-19T01:55:02.422Z,14.65
2023-03-19T01:57:31.479Z,13.23
2023-03-19T02:00:02.385Z,12.30
2023-03-19T02:02:32.016Z,12.90
2023-03-19T02:05:05.017Z,11.55
2023-03-19T02:07:34.475Z,12.85
2023-03-19T02:10:03.793Z,11.50
2023-03-19T02:12:30.712Z,12.30
2023-03-19T02:14:57.670Z,13.57
2023-03-19T02:17:24.658Z,14.52
2023-03-19T02:20:05.519Z,14.15
2023-03-19T02:22:33.234Z,11.80
2023-03-19T02:25:06.950Z,12.85
2023-03-19T02:27:34.641Z,12.73
2023-03-19T02:30:07.954Z,10.95
2023-03-19T02:32:34.968Z,13.38
2023-03-19T02:35:02.035Z,12.10
2023-03-19T02:37:33.493Z,14.25
2023-03-19T02:40:10.625Z,12.88
2023-03-19T02:42:37.974Z,14.73
2023-03-19T02:45:05.550Z,15.35
2023-03-19T02:47:32.453Z,15.43
2023-03-19T02:49:59.395Z,12.40
2023-03-19T02:52:26.410Z,15.98
2023-03-19T02:54:53.550Z,12.68
2023-03-19T02:57:21.371Z,12.95
2023-03-19T02:59:48.313Z,14.20
2023-03-19T03:02:15.718Z,12.63
2023-03-19T03:04:42.988Z,15.77
2023-03-19T03:07:09.928Z,16.65
2023-03-19T03:09:36.959Z,15.50
2023-03-19T03:12:04.745Z,14.00
2023-03-19T03:14:32.058Z,14.00
2023-03-19T03:16:59.077Z,14.75
2023-03-19T03:19:26.119Z,15.65
2023-03-19T03:21:53.141Z,15.73
2023-03-19T03:24:20.114Z,16.02
2023-03-19T03:26:47.061Z,16.37
2023-03-19T03:29:14.184Z,14.43
2023-03-19T03:31:41.576Z,14.57
2023-03-19T03:34:08.609Z,16.85
2023-03-19T03:36:35.745Z,14.65
2023-03-19T03:39:02.841Z,15.75
2023-03-19T03:41:29.961Z,15.25
2023-03-19T03:43:57.881Z,16.30
2023-03-19T03:46:25.178Z,13.85
2023-03-19T03:48:52.174Z,16.50
2023-03-19T03:51:19.867Z,15.40
2023-03-19T03:53:46.816Z,16.35
2023-03-19T03:56:14.263Z,17.12
2023-03-19T03:58:41.922Z,15.80
2023-03-19T04:01:14.604Z,16.85
2023-03-19T04:03:41.822Z,15.13
2023-03-19T04:06:13.802Z,14.65
2023-03-19T04:08:40.782Z,15.20
2023-03-19T04:11:08.403Z,15.63
2023-03-19T04:13:37.330Z,16.10
2023-03-19T04:16:06.786Z,16.80
2023-03-19T04:18:34.485Z,15.05
2023-03-19T04:21:01.669Z,19.98
2023-03-19T04:23:28.682Z,14.23
2023-03-19T04:26:03.086Z,18.08
2023-03-19T04:28:30.886Z,14.35
2023-03-19T04:31:06.898Z,16.02
2023-03-19T04:33:34.625Z,17.27
2023-03-19T04:36:02.210Z,17.23
2023-03-19T04:38:29.673Z,16.98
2023-03-19T04:40:57.312Z,16.92
2023-03-19T04:43:25.082Z,16.60
2023-03-19T04:45:52.344Z,17.48
2023-03-19T04:48:19.320Z,17.42
2023-03-19T04:50:47.546Z,16.48
2023-03-19T04:53:14.667Z,17.73
2023-03-19T04:55:41.981Z,18.42
2023-03-19T04:58:11.593Z,16.50
2023-03-19T05:00:38.608Z,17.55
2023-03-19T05:03:05.618Z,19.98
2023-03-19T05:05:32.596Z,15.82
2023-03-19T05:07:59.538Z,17.92
2023-03-19T05:10:26.473Z,18.10
2023-03-19T05:12:53.458Z,19.65
2023-03-19T05:15:20.450Z,20.05
2023-03-19T05:17:47.406Z,19.73
2023-03-19T05:20:14.601Z,16.30
2023-03-19T05:22:41.940Z,18.90
2023-03-19T05:25:09.094Z,18.05
2023-03-19T05:27:36.763Z,17.70
2023-03-19T05:30:05.741Z,18.37
2023-03-19T05:32:33.104Z,20.60
2023-03-19T05:35:00.133Z,22.13
2023-03-19T05:37:27.204Z,17.00
2023-03-19T05:39:54.131Z,21.95
2023-03-19T05:42:21.369Z,17.62
2023-03-19T05:44:49.224Z,16.40
2023-03-19T05:47:16.590Z,15.98
2023-03-19T05:49:43.505Z,17.73
2023-03-19T05:52:11.427Z,15.70
2023-03-19T05:54:38.598Z,15.52
2023-03-19T05:57:05.578Z,15.13
2023-03-19T05:59:32.661Z,17.12
2023-03-19T06:02:00.103Z,14.73
2023-03-19T06:04:27.555Z,18.80
2023-03-19T06:06:54.520Z,15.77
2023-03-19T06:09:21.496Z,15.85
2023-03-19T06:11:48.436Z,14.98
2023-03-19T06:14:15.976Z,16.70
2023-03-19T06:16:42.983Z,15.90
2023-03-19T06:19:10.597Z,18.80
2023-03-19T06:21:37.515Z,16.23
2023-03-19T06:24:04.558Z,14.77
2023-03-19T06:26:31.619Z,16.80
2023-03-19T06:28:58.676Z,15.40
2023-03-19T06:31:26.059Z,15.43
2023-03-19T06:33:54.173Z,15.65
2023-03-19T06:36:21.179Z,14.38
2023-03-19T06:38:48.178Z,15.38
2023-03-19T06:41:15.089Z,16.27
2023-03-19T06:43:42.561Z,17.20
2023-03-19T06:46:11.677Z,15.30
2023-03-19T06:48:38.900Z,13.52
2023-03-19T06:51:08.427Z,16.77
2023-03-19T06:53:35.305Z,18.02
2023-03-19T06:56:02.245Z,16.85
2023-03-19T06:58:29.253Z,15.52
2023-03-19T07:00:57.126Z,15.18
2023-03-19T07:03:24.207Z,16.20
2023-03-19T07:05:52.019Z,12.95
2023-03-19T07:08:20.367Z,15.23
2023-03-19T07:10:47.375Z,15.15
2023-03-19T07:13:14.708Z,16.10
2023-03-19T07:15:41.684Z,13.80
2023-03-19T07:18:08.624Z,14.68
2023-03-19T07:20:35.866Z,13.80
2023-03-19T07:23:03.608Z,18.52
2023-03-19T07:25:30.962Z,15.52
2023-03-19T07:27:58.113Z,15.30
2023-03-19T07:30:25.235Z,15.70
2023-03-19T07:32:52.210Z,11.95
2023-03-19T07:35:19.237Z,13.57
2023-03-19T07:37:46.138Z,15.65
2023-03-19T07:40:13.256Z,16.37
2023-03-19T07:42:40.411Z,12.80
2023-03-19T07:45:07.977Z,13.43
2023-03-19T07:47:34.901Z,12.48
2023-03-19T07:50:01.897Z,12.85
2023-03-19T07:52:28.853Z,14.87
2023-03-19T07:54:55.950Z,14.57
2023-03-19T07:57:23.058Z,13.07
2023-03-19T07:59:50.038Z,15.48
2023-03-19T08:02:17.369Z,11.85
2023-03-19T08:04:44.523Z,14.50
2023-03-19T08:07:13.055Z,12.10
2023-03-19T08:09:40.892Z,13.05
2023-03-19T08:12:08.592Z,12.85
2023-03-19T08:14:35.886Z,15.68
2023-03-19T08:17:02.864Z,15.77
2023-03-19T08:19:29.937Z,13.35
2023-03-19T08:21:56.876Z,13.48
2023-03-19T08:24:23.996Z,11.57
2023-03-19T08:26:51.009Z,19.15
2023-03-19T08:29:19.099Z,14.32
2023-03-19T08:31:46.545Z,12.02
2023-03-19T08:34:13.823Z,13.73
2023-03-19T08:36:41.023Z,12.32
2023-03-19T08:39:08.101Z,13.20
2023-03-19T08:41:35.096Z,11.15
2023-03-19T08:44:02.278Z,13.40
2023-03-19T08:46:29.900Z,13.38
2023-03-19T08:48:57.108Z,12.82
2023-03-19T08:51:26.297Z,10.65
2023-03-19T08:53:53.617Z,14.63
2023-03-19T08:56:20.695Z,14.57
2023-03-19T08:58:47.685Z,11.93
2023-03-19T09:01:15.620Z,13.52
2023-03-19T09:03:45.595Z,11.65
2023-03-19T09:06:14.792Z,13.80
2023-03-19T09:08:42.460Z,12.37
2023-03-19T09:11:11.187Z,12.20
2023-03-19T09:13:38.422Z,11.52
2023-03-19T09:16:06.035Z,10.13
2023-03-19T09:18:34.493Z,11.45
2023-03-19T09:21:03.018Z,12.27
2023-03-19T09:23:29.939Z,12.60
2023-03-19T09:25:56.965Z,13.13
2023-03-19T09:28:23.938Z,10.38
2023-03-19T09:30:51.971Z,12.68
2023-03-19T09:33:20.710Z,12.55
2023-03-19T09:35:55.810Z,11.75
2023-03-19T09:38:23.002Z,11.35
2023-03-19T09:41:05.212Z,16.10
2023-03-19T09:43:52.396Z,12.37
2023-03-19T09:46:24.925Z,10.93
2023-03-19T09:49:17.656Z,12.27
2023-03-19T09:51:54.042Z,16.58
2023-03-19T09:54:56.921Z,12.82
2023-03-19T09:57:24.145Z,13.82
2023-03-19T09:59:52.560Z,12.20
2023-03-19T10:02:22.237Z,12.65
2023-03-19T10:04:59.362Z,13.70
2023-03-19T10:07:32.858Z,13.88
2023-03-19T10:10:22.208Z,11.70
2023-03-19T10:13:23.163Z,11.52
2023-03-19T10:15:53.086Z,12.02
2023-03-19T10:18:25.139Z,12.98
2023-03-19T10:21:00.983Z,13.75
2023-03-19T10:23:51.858Z,12.43
2023-03-19T10:26:23.942Z,15.70
2023-03-19T10:29:10.383Z,11.52
2023-03-19T10:31:40.030Z,12.35
2023-03-19T10:34:29.099Z,13.43
2023-03-19T10:37:19.965Z,11.95
2023-03-19T10:39:49.190Z,13.52
2023-03-19T10:42:44.009Z,13.02
2023-03-19T10:45:31.986Z,11.90
2023-03-19T10:48:01.841Z,12.68
2023-03-19T10:53:15.080Z,13.30
2023-03-19T10:56:18.005Z,13.77
2023-03-19T10:58:57.482Z,10.40
2023-03-19T11:01:28.726Z,12.57
2023-03-19T11:03:58.443Z,11.12
2023-03-19T11:06:34.203Z,11.35
2023-03-19T11:09:22.659Z,12.32
2023-03-19T11:12:07.217Z,18.15
2023-03-19T11:14:38.517Z,11.52
2023-03-19T11:17:16.583Z,11.77
2023-03-19T11:19:52.417Z,12.48
2023-03-19T11:22:25.924Z,13.88
2023-03-19T11:25:01.182Z,11.80
2023-03-19T11:27:29.988Z,14.52
2023-03-19T11:29:57.199Z,8.97
2023-03-19T11:32:39.568Z,11.50
2023-03-19T11:35:18.025Z,10.27
2023-03-19T11:37:53.997Z,12.80
2023-03-19T11:40:27.877Z,11.02
2023-03-19T11:43:21.520Z,10.73
2023-03-19T11:45:54.500Z,12.13
2023-03-19T11:48:39.816Z,9.88
2023-03-19T11:51:23.166Z,12.88
2023-03-19T11:54:17.722Z,10.63
2023-03-19T11:56:58.661Z,14.07
2023-03-19T12:00:00.424Z,11.07
2023-03-19T12:02:54.240Z,10.65
2023-03-19T12:05:44.132Z,10.48
2023-03-19T12:08:36.522Z,12.18
2023-03-19T12:11:22.308Z,11.27
2023-03-19T12:13:52.435Z,12.55
2023-03-19T12:16:46.492Z,10.57
2023-03-19T12:19:52.102Z,9.82
2023-03-19T12:22:39.247Z,10.63
2023-03-19T12:25:43.767Z,11.27
2023-03-19T12:28:36.583Z,10.45
2023-03-19T12:31:16.893Z,10.45
2023-03-19T12:34:06.146Z,9.70
2023-03-19T12:36:39.966Z,9.75
2023-03-19T12:39:15.474Z,11.95
2023-03-19T12:41:46.467Z,9.57
2023-03-19T12:44:29.210Z,9.93
2023-03-19T12:47:02.903Z,9.85
2023-03-19T12:49:33.005Z,8.95
2023-03-19T12:52:04.240Z,8.95
2023-03-19T12:54:40.000Z,9.38
2023-03-19T12:57:14.576Z,7.32
2023-03-19T13:00:00.156Z,7.57
2023-03-19T13:02:42.376Z,9.45
2023-03-19T13:05:15.069Z,10.43
2023-03-19T13:08:20.908Z,9.70
2023-03-19T13:10:47.924Z,11.82
2023-03-19T13:13:23.757Z,7.90
2023-03-19T13:15:55.990Z,7.28
2023-03-19T13:18:41.187Z,8.18
2023-03-19T13:21:28.478Z,8.75
2023-03-19T13:24:26.526Z,9.63
2023-03-19T13:26:55.715Z,9.18
2023-03-19T13:29:25.887Z,11.20
2023-03-19T13:31:53.978Z,8.50
2023-03-19T13:34:27.219Z,8.15
2023-03-19T13:37:17.182Z,7.62
2023-03-19T13:39:46.759Z,8.70
2023-03-19T13:42:42.389Z,9.70
2023-03-19T13:45:37.693Z,9.98
2023-03-19T13:48:35.887Z,8.13
2023-03-19T13:51:06.565Z,9.77
2023-03-19T13:53:39.509Z,9.60
2023-03-19T13:56:29.213Z,9.95
2023-03-19T13:59:17.521Z,10.32
2023-03-19T14:01:45.171Z,8.55
2023-03-19T14:04:20.149Z,8.57
2023-03-19T14:06:52.218Z,9.60
2023-03-19T14:09:36.295Z,9.13
2023-03-19T14:12:37.635Z,8.90
2023-03-19T14:15:10.867Z,8.63
2023-03-19T14:17:52.159Z,7.95
2023-03-19T14:20:24.110Z,7.60
2023-03-19T14:23:08.941Z,6.95
2023-03-19T14:25:58.283Z,10.38
2023-03-19T14:28:40.419Z,9.05
2023-03-19T14:31:21.998Z,10.15
2023-03-19T14:34:07.851Z,9.30
2023-03-19T14:36:38.705Z,8.30
2023-03-19T14:39:27.765Z,7.93
2023-03-19T14:42:44.780Z,9.45
2023-03-19T14:45:43.588Z,7.93
2023-03-19T14:48:15.524Z,9.97
2023-03-19T14:51:24.881Z,7.32
2023-03-19T14:54:02.522Z,8.15
2023-03-19T14:56:35.178Z,9.75
2023-03-19T14:59:06.224Z,10.57
2023-03-19T15:01:40.522Z,7.70
2023-03-19T15:04:13.298Z,9.00
2023-03-19T15:06:42.460Z,8.25
2023-03-19T15:09:27.305Z,11.10
2023-03-19T15:12:31.585Z,8.55
2023-03-19T15:15:22.581Z,8.30
2023-03-19T15:18:03.752Z,10.15
2023-03-19T15:20:40.584Z,9.95
2023-03-19T15:23:25.743Z,10.23
2023-03-19T15:25:58.138Z,10.32
2023-03-19T15:28:28.178Z,11.48
2023-03-19T15:31:22.194Z,9.57
2023-03-19T15:33:51.667Z,8.38
2023-03-19T15:36:24.928Z,13.32
2023-03-19T15:39:02.892Z,8.80
2023-03-19T15:41:32.973Z,9.15
2023-03-19T15:44:01.815Z,8.88
2023-03-19T15:46:37.023Z,10.30
2023-03-19T15:49:29.421Z,12.82
2023-03-19T15:52:02.611Z,7.87
2023-03-19T15:54:29.793Z,9.13
2023-03-19T15:56:57.582Z,12.88
2023-03-19T15:59:30.221Z,9.70
2023-03-19T16:02:00.207Z,11.05
2023-03-19T16:04:30.041Z,10.77
2023-03-19T16:06:58.774Z,12.27
2023-03-19T16:09:27.605Z,13.35
2023-03-19T16:11:56.099Z,16.37
2023-03-19T16:14:28.281Z,12.85
2023-03-19T16:17:06.110Z,11.90
2023-03-19T16:19:51.001Z,10.30
2023-03-19T16:22:25.104Z,11.75
2023-03-19T16:24:52.913Z,12.73
2023-03-19T16:27:40.165Z,10.38
2023-03-19T16:30:24.041Z,11.32
2023-03-19T16:33:02.512Z,9.35
2023-03-19T16:35:32.108Z,12.45
2023-03-19T16:38:22.522Z,12.57
2023-03-19T16:41:10.401Z,12.52
2023-03-19T16:43:37.698Z,13.13
2023-03-19T16:46:08.647Z,13.23
2023-03-19T16:48:35.621Z,12.70
2023-03-19T16:51:02.814Z,10.02
2023-03-19T16:53:31.992Z,9.35
2023-03-19T16:55:59.755Z,12.95
2023-03-19T16:58:32.012Z,12.13
2023-03-19T17:01:01.410Z,10.65
2023-03-19T17:03:30.401Z,14.35
2023-03-19T17:05:57.498Z,9.35
2023-03-19T17:08:26.432Z,10.18
2023-03-19T17:10:54.635Z,14.13
2023-03-19T17:13:28.714Z,14.02
2023-03-19T17:16:05.941Z,17.58
2023-03-19T17:18:36.753Z,13.00
2023-03-19T17:21:14.533Z,11.98
2023-03-19T17:23:41.595Z,17.80
2023-03-19T17:26:29.347Z,22.33
2023-03-19T17:28:57.204Z,47.60
2023-03-19T17:31:27.418Z,91.60
2023-03-19T17:34:06.222Z,86.22
2023-03-19T17:36:33.995Z,52.08
2023-03-19T17:39:00.977Z,47.03
2023-03-19T17:41:30.568Z,43.90
2023-03-19T17:43:57.518Z,40.22
2023-03-19T17:46:29.584Z,29.08
2023-03-19T17:48:56.584Z,23.95
2023-03-19T17:51:26.388Z,24.95
2023-03-19T17:53:55.694Z,23.67
2023-03-19T17:56:25.647Z,23.08
2023-03-19T17:58:53.303Z,27.27
2023-03-19T18:01:27.578Z,33.80
2023-03-19T18:03:56.497Z,59.00
2023-03-19T18:06:25.894Z,70.87
2023-03-19T18:08:53.250Z,54.53
2023-03-19T18:11:20.403Z,82.65
2023-03-19T18:13:47.404Z,93.00
2023-03-19T18:16:17.110Z,49.63
2023-03-19T18:21:16.066Z,40.78
2023-03-19T18:23:44.182Z,41.50
2023-03-19T18:26:17.239Z,25.48
2023-03-19T18:28:44.916Z,56.83
2023-03-19T18:31:19.204Z,63.30
2023-03-19T18:33:51.929Z,63.05
2023-03-19T18:36:25.962Z,53.63
2023-03-19T18:38:55.367Z,79.47
2023-03-19T18:41:24.226Z,51.78
2023-03-19T18:43:51.251Z,65.43
2023-03-19T18:46:29.769Z,50.20
2023-03-19T18:49:17.226Z,52.38
2023-03-19T18:52:00.702Z,46.03
2023-03-19T18:54:28.417Z,38.00
2023-03-19T18:56:56.540Z,54.35
2023-03-19T18:59:33.215Z,29.05
2023-03-19T19:02:22.129Z,31.35
2023-03-19T19:04:49.195Z,49.60
2023-03-19T19:07:16.980Z,58.63
2023-03-19T19:09:44.089Z,45.08
2023-03-19T19:12:15.153Z,47.17
2023-03-19T19:14:44.341Z,46.53
2023-03-19T19:17:20.170Z,43.53
2023-03-19T19:19:47.256Z,35.28
2023-03-19T19:22:16.680Z,31.83
2023-03-19T19:24:44.304Z,26.05
2023-03-19T19:27:37.375Z,27.30
2023-03-19T19:30:05.069Z,27.95
2023-03-19T19:32:32.599Z,43.72
2023-03-19T19:34:59.604Z,39.75
2023-03-19T19:37:26.593Z,41.60
2023-03-19T19:39:53.742Z,35.97
2023-03-19T19:42:22.415Z,30.10
2023-03-19T19:44:59.039Z,33.05
2023-03-19T19:47:27.508Z,21.45
2023-03-19T19:49:54.475Z,20.73
2023-03-19T19:52:21.656Z,15.90
2023-03-19T19:54:48.810Z,19.23
2023-03-19T19:57:22.967Z,22.13
2023-03-19T19:59:52.047Z,21.17
2023-03-19T20:02:29.611Z,18.60
2023-03-19T20:04:58.161Z,29.37
2023-03-19T20:07:25.108Z,27.85
2023-03-19T20:09:52.154Z,22.15
2023-03-19T20:12:22.943Z,23.38
2023-03-19T20:14:52.526Z,15.35
2023-03-19T20:17:21.548Z,12.65
2023-03-19T20:19:49.168Z,16.75
2023-03-19T20:22:16.475Z,13.88
2023-03-19T20:24:43.742Z,17.48
2023-03-19T20:27:23.437Z,15.32
2023-03-19T20:29:51.045Z,15.38
2023-03-19T20:32:33.275Z,17.73
2023-03-19T20:35:04.260Z,106.60
2023-03-19T20:37:31.321Z,125.07
2023-03-19T20:39:58.293Z,43.35
2023-03-19T20:42:27.070Z,42.28
2023-03-19T20:44:58.722Z,27.60
2023-03-19T20:47:26.260Z,17.02
2023-03-19T20:49:53.562Z,16.45
2023-03-19T20:52:20.942Z,21.05
2023-03-19T20:54:48.506Z,18.77
2023-03-19T20:57:24.460Z,24.63
2023-03-19T20:59:51.396Z,24.55
2023-03-19T21:02:24.684Z,23.45
2023-03-19T21:04:51.973Z,23.42
2023-03-19T21:07:33.894Z,22.83
2023-03-19T21:10:03.722Z,23.10
2023-03-19T21:12:32.760Z,22.33
2023-03-19T21:15:01.129Z,23.60
2023-03-19T21:17:28.897Z,15.55
2023-03-19T21:19:56.957Z,16.90
2023-03-19T21:22:28.741Z,17.65
2023-03-19T21:25:07.040Z,17.00
2023-03-19T21:27:37.216Z,15.32
2023-03-19T21:30:05.816Z,14.75
2023-03-19T21:32:32.838Z,16.95
2023-03-19T21:34:59.946Z,21.58
2023-03-19T21:37:26.882Z,17.65
2023-03-19T21:39:53.977Z,17.15
2023-03-19T21:42:22.857Z,15.57
2023-03-19T21:44:57.299Z,12.90
2023-03-19T21:47:25.907Z,16.45
2023-03-19T21:49:52.808Z,19.05
2023-03-19T21:52:22.178Z,19.25
2023-03-19T21:54:49.379Z,22.50
2023-03-19T21:57:17.498Z,16.60
2023-03-19T21:59:48.766Z,20.08
2023-03-19T22:02:27.571Z,16.92
2023-03-19T22:04:54.744Z,15.57
2023-03-19T22:07:21.840Z,18.65
2023-03-19T22:09:48.982Z,17.80
2023-03-19T22:12:27.669Z,20.33
2023-03-19T22:14:55.058Z,21.15
2023-03-19T22:17:25.838Z,16.90
2023-03-19T22:19:52.863Z,17.65
2023-03-19T22:22:19.837Z,19.02
2023-03-19T22:24:46.790Z,20.62
2023-03-19T22:27:17.558Z,23.45
2023-03-19T22:29:47.423Z,23.83
2023-03-19T22:34:44.502Z,23.40
2023-03-19T22:37:28.162Z,22.90
2023-03-19T22:39:55.716Z,19.90
2023-03-19T22:42:26.405Z,20.92
2023-03-19T22:44:54.791Z,23.25
2023-03-19T22:47:25.004Z,20.33
2023-03-19T22:49:52.638Z,22.25
2023-03-19T22:52:19.969Z,20.52
2023-03-19T22:54:48.095Z,20.20
2023-03-19T22:57:15.434Z,21.55
2023-03-19T22:59:43.464Z,21.73
2023-03-19T23:02:14.844Z,21.55
2023-03-19T23:04:41.965Z,20.27
2023-03-19T23:07:12.863Z,21.37
2023-03-19T23:09:40.139Z,21.80
2023-03-19T23:14:34.927Z,19.52
2023-03-19T23:17:07.598Z,28.73
2023-03-19T23:19:36.923Z,24.77
2023-03-19T23:22:05.719Z,27.60
2023-03-19T23:24:33.936Z,31.55
2023-03-19T23:27:02.592Z,38.97
2023-03-19T23:29:35.239Z,24.70
2023-03-19T23:32:04.617Z,26.17
2023-03-19T23:34:35.287Z,29.70
2023-03-19T23:37:07.280Z,30.00
2023-03-19T23:39:34.315Z,33.47
2023-03-19T23:42:01.287Z,36.05
2023-03-19T23:44:29.484Z,27.02
2023-03-19T23:47:01.928Z,26.60
2023-03-19T23:49:32.664Z,30.33
2023-03-19T23:52:01.046Z,25.70
2023-03-19T23:54:36.803Z,25.52
2023-03-19T23:57:08.409Z,21.10
2023-03-19T23:59:38.677Z,20.27
